Time;durP1;ratioP1;P1;durP2;ratioP2;P2;SDS_P1;SDS_P2;PMS_P1;PMS_P2;Temp;Humidity;BMP_temperature;BMP_pressure;BME280_temperature;BME280_humidity;BME280_pressure;Samples;Min_cycle;Max_cycle;Signal;HPM_P1;HPM_P2
2021/06/18 00:01:55;;;;;;;40.83;33.80;;;20.80;99.90;;;;;;5091956;28;20126;-57
2021/06/18 00:04:21;;;;;;;36.53;28.00;;;20.70;99.90;;;;;;5091738;28;20051;-57
2021/06/18 00:06:47;;;;;;;40.45;34.38;;;20.80;99.90;;;;;;5090551;28;20036;-57
2021/06/18 00:09:13;;;;;;;35.25;30.83;;;20.80;99.90;;;;;;5085163;28;20493;-58
2021/06/18 00:11:39;;;;;;;34.17;30.30;;;20.60;99.90;;;;;;5071737;28;20052;-57
2021/06/18 00:14:05;;;;;;;36.20;30.35;;;20.70;99.90;;;;;;5071767;28;20044;-57
2021/06/18 00:16:34;;;;;;;34.25;29.55;;;20.70;99.90;;;;;;5071527;28;20098;-57
2021/06/18 00:19:00;;;;;;;36.00;30.45;;;20.70;99.90;;;;;;5071717;28;20128;-57
2021/06/18 00:21:26;;;;;;;31.02;27.73;;;20.70;99.90;;;;;;5071790;28;20045;-57
2021/06/18 00:23:52;;;;;;;40.88;30.45;;;20.80;99.90;;;;;;5071548;28;20061;-57
2021/06/18 00:26:18;;;;;;;36.45;31.85;;;20.60;99.90;;;;;;5071457;28;20040;-57
2021/06/18 00:28:44;;;;;;;34.13;30.30;;;20.60;99.90;;;;;;5071467;28;20123;-57
2021/06/18 00:31:10;;;;;;;40.80;34.95;;;20.70;99.90;;;;;;5071714;28;20048;-57
2021/06/18 00:33:36;;;;;;;38.08;31.13;;;20.60;99.90;;;;;;5071634;28;20152;-57
2021/06/18 00:36:02;;;;;;;41.92;32.85;;;20.60;99.90;;;;;;5071671;28;20048;-57
2021/06/18 00:38:28;;;;;;;36.17;30.13;;;20.70;99.90;;;;;;5071479;28;20466;-57
2021/06/18 00:40:54;;;;;;;34.97;31.17;;;20.60;99.90;;;;;;5071303;28;20505;-57
2021/06/18 00:43:21;;;;;;;37.30;33.28;;;20.60;99.90;;;;;;5071301;28;20041;-57
2021/06/18 00:45:47;;;;;;;37.42;32.97;;;20.50;99.90;;;;;;5071257;28;20086;-57
2021/06/18 00:48:13;;;;;;;41.40;31.98;;;20.50;99.90;;;;;;5071236;28;20367;-57
2021/06/18 00:50:40;;;;;;;34.35;29.92;;;20.40;99.90;;;;;;5071403;28;20040;-57
2021/06/18 00:53:07;;;;;;;40.33;34.30;;;20.50;99.90;;;;;;5071437;28;20040;-57
2021/06/18 00:55:33;;;;;;;39.33;34.05;;;20.40;99.90;;;;;;5071418;28;20072;-57
2021/06/18 00:57:59;;;;;;;34.65;30.92;;;20.40;99.90;;;;;;5074677;28;20044;-57
2021/06/18 01:00:25;;;;;;;38.90;31.35;;;20.30;99.90;;;;;;5074834;28;20044;-57
2021/06/18 01:02:51;;;;;;;36.53;31.23;;;20.30;99.90;;;;;;5074573;28;20128;-57
2021/06/18 01:05:19;;;;;;;40.22;35.33;;;20.30;99.90;;;;;;5074853;28;20479;-57
2021/06/18 01:08:24;;;;;;;37.20;32.50;;;20.30;99.90;;;;;;5074815;28;20036;-57
2021/06/18 01:11:07;;;;;;;32.95;29.58;;;20.30;99.90;;;;;;5074412;28;20482;-57
2021/06/18 01:14:01;;;;;;;36.05;31.05;;;20.40;99.90;;;;;;5074535;28;20047;-57
2021/06/18 01:16:37;;;;;;;34.15;30.42;;;20.40;99.90;;;;;;5052422;28;20037;-57
2021/06/18 01:19:11;;;;;;;43.72;37.22;;;20.30;99.90;;;;;;5052197;28;20048;-57
2021/06/18 01:21:45;;;;;;;34.83;31.30;;;20.30;99.90;;;;;;5052156;28;20037;-57
2021/06/18 01:24:41;;;;;;;35.38;31.50;;;20.30;99.90;;;;;;5052030;28;20053;-57
2021/06/18 01:27:22;;;;;;;35.45;30.15;;;20.40;99.90;;;;;;5052014;28;20045;-57
2021/06/18 01:29:54;;;;;;;35.70;31.80;;;20.20;99.90;;;;;;5052020;28;20052;-57
2021/06/18 01:32:31;;;;;;;40.03;34.45;;;20.20;99.90;;;;;;5052042;28;20073;-57
2021/06/18 01:34:58;;;;;;;35.63;31.13;;;20.10;99.90;;;;;;5051950;28;20044;-57
2021/06/18 01:37:30;;;;;;;40.50;31.08;;;20.00;99.90;;;;;;5052010;28;20052;-56
2021/06/18 01:39:59;;;;;;;35.78;31.92;;;20.00;99.90;;;;;;5051873;28;20095;-57
2021/06/18 01:42:27;;;;;;;37.67;32.30;;;20.00;99.90;;;;;;5051782;28;20056;-57
2021/06/18 01:44:55;;;;;;;37.85;33.38;;;20.00;99.90;;;;;;5051835;28;20068;-57
2021/06/18 01:47:22;;;;;;;42.78;35.22;;;20.00;99.90;;;;;;5051789;28;20056;-57
2021/06/18 01:49:49;;;;;;;44.75;34.58;;;20.00;99.90;;;;;;5051706;28;20120;-57
2021/06/18 01:52:16;;;;;;;35.60;31.08;;;20.00;99.90;;;;;;5052794;28;20450;-57
2021/06/18 01:54:45;;;;;;;36.83;30.47;;;20.00;99.90;;;;;;5073660;28;20430;-57
2021/06/18 01:57:13;;;;;;;42.05;32.45;;;20.00;99.90;;;;;;5073671;28;20040;-57
2021/06/18 01:59:39;;;;;;;35.55;29.48;;;20.10;99.90;;;;;;5073701;28;20037;-57
2021/06/18 02:02:06;;;;;;;34.60;30.85;;;20.10;99.90;;;;;;5073702;28;20055;-57
2021/06/18 02:04:34;;;;;;;39.60;35.30;;;20.10;99.90;;;;;;5083472;28;20051;-56
2021/06/18 02:07:01;;;;;;;40.17;33.25;;;20.00;99.90;;;;;;5093166;28;20078;-57
2021/06/18 02:09:30;;;;;;;40.25;34.55;;;20.10;99.90;;;;;;5093581;28;20119;-57
2021/06/18 02:11:56;;;;;;;42.25;35.78;;;19.90;99.90;;;;;;5093816;28;20048;-56
2021/06/18 02:14:26;;;;;;;27.83;25.00;;;19.90;99.90;;;;;;5093439;28;20050;-57
2021/06/18 02:16:55;;;;;;;32.58;28.30;;;19.90;99.90;;;;;;5093699;28;20413;-57
2021/06/18 02:19:22;;;;;;;42.33;37.80;;;19.90;99.90;;;;;;5093425;28;20123;-57
2021/06/18 02:21:52;;;;;;;40.90;36.38;;;20.00;99.90;;;;;;5093321;28;20386;-57
2021/06/18 02:24:21;;;;;;;39.90;33.50;;;19.90;99.90;;;;;;5093315;28;20083;-57
2021/06/18 02:26:47;;;;;;;40.92;36.55;;;19.90;99.90;;;;;;5093371;28;20044;-56
2021/06/18 02:29:14;;;;;;;39.60;35.40;;;19.90;99.90;;;;;;5093351;28;20048;-57
2021/06/18 02:31:40;;;;;;;44.28;36.97;;;19.90;99.90;;;;;;5093298;28;20055;-57
2021/06/18 02:34:10;;;;;;;40.38;35.97;;;19.80;99.90;;;;;;5093254;28;20536;-57
2021/06/18 02:36:39;;;;;;;43.55;37.13;;;19.70;99.90;;;;;;5093352;28;20097;-57
2021/06/18 02:39:09;;;;;;;39.97;36.00;;;19.80;99.90;;;;;;5093232;28;20422;-57
2021/06/18 02:41:36;;;;;;;37.28;30.00;;;19.70;99.90;;;;;;5092979;28;20394;-57
2021/06/18 02:44:03;;;;;;;40.75;34.70;;;19.90;99.90;;;;;;5093149;28;20093;-57
2021/06/18 02:46:34;;;;;;;42.60;37.88;;;19.90;99.90;;;;;;5092821;28;20038;-57
2021/06/18 02:49:02;;;;;;;41.78;37.28;;;19.80;99.90;;;;;;5092805;28;20040;-57
2021/06/18 02:51:47;;;;;;;40.50;33.73;;;19.70;99.90;;;;;;5093034;28;20040;-57
2021/06/18 02:54:20;;;;;;;39.58;35.58;;;19.80;99.90;;;;;;5092719;28;20066;-57
2021/06/18 02:56:49;;;;;;;51.08;37.97;;;19.80;99.90;;;;;;5093114;28;20474;-57
2021/06/18 02:59:55;;;;;;;33.13;29.50;;;19.80;99.90;;;;;;5092647;28;20044;-57
2021/06/18 03:02:25;;;;;;;40.25;35.97;;;19.90;99.90;;;;;;5092915;28;20039;-57
2021/06/18 03:04:55;;;;;;;40.10;35.10;;;19.90;99.90;;;;;;5092567;28;20098;-57
2021/06/18 03:07:28;;;;;;;44.10;35.72;;;19.80;99.90;;;;;;5092460;28;20039;-57
2021/06/18 03:09:58;;;;;;;44.95;36.83;;;19.90;99.90;;;;;;5092574;28;20051;-57
2021/06/18 03:12:25;;;;;;;38.75;34.65;;;19.90;99.90;;;;;;5092832;28;20075;-57
2021/06/18 03:14:55;;;;;;;37.08;33.08;;;19.80;99.90;;;;;;5092455;28;20051;-57
2021/06/18 03:17:21;;;;;;;40.38;36.28;;;19.80;99.90;;;;;;5092357;28;20123;-57
2021/06/18 03:19:52;;;;;;;38.90;34.75;;;19.90;99.90;;;;;;5091658;28;20046;-57
2021/06/18 03:22:21;;;;;;;33.85;30.27;;;19.70;99.90;;;;;;5092396;28;20056;-57
2021/06/18 03:24:48;;;;;;;38.33;34.13;;;19.80;99.90;;;;;;5092601;28;20051;-57
2021/06/18 03:27:17;;;;;;;39.83;35.28;;;19.80;99.90;;;;;;5092490;28;20044;-57
2021/06/18 03:29:43;;;;;;;30.88;27.40;;;19.80;99.90;;;;;;5092252;28;20473;-56
2021/06/18 03:32:10;;;;;;;34.22;30.63;;;19.80;99.90;;;;;;5092268;28;20410;-57
2021/06/18 03:34:37;;;;;;;34.53;30.92;;;19.80;99.90;;;;;;5089622;28;20040;-57
2021/06/18 03:37:03;;;;;;;34.95;28.92;;;19.80;99.90;;;;;;5090656;28;20047;-57
2021/06/18 03:39:30;;;;;;;33.17;27.90;;;19.80;99.90;;;;;;5092081;28;20044;-57
2021/06/18 03:41:57;;;;;;;28.58;25.65;;;19.80;99.90;;;;;;5091518;28;20052;-57
2021/06/18 03:44:24;;;;;;;27.42;24.55;;;19.60;99.90;;;;;;5091321;28;20056;-57
2021/06/18 03:46:51;;;;;;;29.05;25.65;;;19.70;99.90;;;;;;5091348;28;20463;-57
2021/06/18 03:49:18;;;;;;;33.15;29.67;;;19.60;99.90;;;;;;5091598;28;20047;-58
2021/06/18 03:51:44;;;;;;;32.55;29.23;;;19.60;99.90;;;;;;5091184;28;20051;-57
2021/06/18 03:54:10;;;;;;;28.27;23.02;;;19.60;99.90;;;;;;5092280;28;20040;-57
2021/06/18 03:56:38;;;;;;;31.88;28.20;;;19.60;99.90;;;;;;5092457;28;20203;-57
2021/06/18 03:59:05;;;;;;;30.60;24.88;;;19.70;99.90;;;;;;5092205;28;20122;-56
2021/06/18 04:01:31;;;;;;;31.52;28.38;;;19.70;99.90;;;;;;5092015;28;20047;-57
2021/06/18 04:03:59;;;;;;;32.63;29.20;;;19.70;99.90;;;;;;5092066;28;20052;-57
2021/06/18 04:06:28;;;;;;;34.10;28.10;;;19.70;99.90;;;;;;5092302;28;20044;-56
2021/06/18 04:08:55;;;;;;;33.38;29.90;;;19.70;99.90;;;;;;5091966;28;20055;-57
2021/06/18 04:11:21;;;;;;;32.33;28.63;;;19.70;99.90;;;;;;5090682;28;20395;-57
2021/06/18 04:13:48;;;;;;;34.22;29.65;;;19.80;99.90;;;;;;5091754;28;20043;-57
2021/06/18 04:16:14;;;;;;;34.55;31.02;;;19.80;99.90;;;;;;5091812;28;20039;-57
2021/06/18 04:18:44;;;;;;;31.60;28.23;;;19.90;99.90;;;;;;5091940;28;20044;-57
2021/06/18 04:21:14;;;;;;;32.15;27.65;;;20.00;99.90;;;;;;5091584;28;20040;-57
2021/06/18 04:23:39;;;;;;;26.95;24.13;;;20.00;99.90;;;;;;5091463;28;20493;-57
2021/06/18 04:26:06;;;;;;;24.88;22.48;;;20.10;99.90;;;;;;5091832;28;20120;-57
2021/06/18 04:28:31;;;;;;;34.90;30.65;;;20.10;99.90;;;;;;5091584;28;20046;-57
2021/06/18 04:30:57;;;;;;;34.88;31.17;;;20.20;99.90;;;;;;5093791;28;20127;-57
2021/06/18 04:33:24;;;;;;;32.20;27.27;;;20.20;99.90;;;;;;5095718;28;20096;-57
2021/06/18 04:35:50;;;;;;;34.45;30.80;;;20.20;99.90;;;;;;5095635;28;20127;-57
2021/06/18 04:38:15;;;;;;;31.42;28.02;;;20.20;99.90;;;;;;5095607;28;20135;-57
2021/06/18 04:40:41;;;;;;;35.10;30.35;;;20.20;99.90;;;;;;5095527;28;20055;-57
2021/06/18 04:43:07;;;;;;;26.02;23.25;;;20.30;99.90;;;;;;5095187;28;20551;-57
2021/06/18 04:45:33;;;;;;;26.73;24.00;;;20.30;99.90;;;;;;5095628;28;20130;-57
2021/06/18 04:48:00;;;;;;;28.83;25.48;;;20.30;99.90;;;;;;5095279;28;20105;-58
2021/06/18 04:50:26;;;;;;;37.85;32.58;;;20.30;99.90;;;;;;5095391;28;20051;-56
2021/06/18 04:52:52;;;;;;;31.27;28.13;;;20.30;99.90;;;;;;5095130;28;20044;-57
2021/06/18 04:55:18;;;;;;;27.50;24.55;;;20.30;99.90;;;;;;5095198;28;20055;-57
2021/06/18 04:57:47;;;;;;;33.92;30.50;;;20.40;99.90;;;;;;5095154;28;20127;-57
2021/06/18 05:00:14;;;;;;;36.35;32.83;;;20.40;99.90;;;;;;5095068;28;20055;-56
2021/06/18 05:02:40;;;;;;;30.67;27.60;;;20.40;99.90;;;;;;5094962;28;20101;-57
2021/06/18 05:05:06;;;;;;;29.33;26.35;;;20.50;99.90;;;;;;5095068;28;20474;-57
2021/06/18 05:07:32;;;;;;;31.38;28.23;;;20.50;99.90;;;;;;5094854;28;20048;-57
2021/06/18 05:09:57;;;;;;;27.52;24.90;;;20.40;99.90;;;;;;5094947;28;20044;-57
2021/06/18 05:12:23;;;;;;;27.05;24.25;;;20.40;99.90;;;;;;5094700;28;20100;-57
2021/06/18 05:14:49;;;;;;;26.42;23.77;;;20.40;99.90;;;;;;5094739;28;20080;-57
2021/06/18 05:17:15;;;;;;;24.23;21.83;;;20.50;99.90;;;;;;5094925;28;20078;-57
2021/06/18 05:19:41;;;;;;;24.67;22.27;;;20.40;99.90;;;;;;5094740;28;20074;-57
2021/06/18 05:22:07;;;;;;;28.13;25.48;;;20.40;99.90;;;;;;5094597;28;20512;-56
2021/06/18 05:24:33;;;;;;;30.27;27.38;;;20.40;99.90;;;;;;5094500;28;20189;-57
2021/06/18 05:26:59;;;;;;;27.85;25.05;;;20.40;99.90;;;;;;5094491;28;20445;-57
2021/06/18 05:29:25;;;;;;;30.52;27.48;;;20.40;99.90;;;;;;5094439;28;20044;-56
2021/06/18 05:31:50;;;;;;;31.00;28.02;;;20.50;99.90;;;;;;5094607;28;20044;-57
2021/06/18 05:34:16;;;;;;;31.30;27.98;;;20.40;99.90;;;;;;5094394;28;20118;-57
2021/06/18 05:36:44;;;;;;;33.60;29.10;;;20.40;99.90;;;;;;5094402;28;20036;-57
2021/06/18 05:39:15;;;;;;;35.85;32.22;;;20.50;99.90;;;;;;5094339;28;20409;-56
2021/06/18 05:41:42;;;;;;;32.95;29.55;;;20.40;99.90;;;;;;5093361;28;20036;-57
2021/06/18 05:44:07;;;;;;;31.45;28.02;;;20.40;99.90;;;;;;5094486;28;20036;-57
2021/06/18 05:46:34;;;;;;;35.78;32.08;;;20.40;99.90;;;;;;5094264;28;20058;-56
2021/06/18 05:49:00;;;;;;;36.85;32.92;;;20.40;99.90;;;;;;5094035;28;20032;-57
2021/06/18 05:51:27;;;;;;;33.53;30.25;;;20.40;99.90;;;;;;5094125;28;20044;-57
2021/06/18 05:53:53;;;;;;;34.42;30.90;;;20.40;99.90;;;;;;5094087;28;20047;-57
2021/06/18 05:56:20;;;;;;;33.05;29.42;;;20.40;99.90;;;;;;5078084;28;20048;-56
2021/06/18 05:58:45;;;;;;;32.47;28.92;;;20.40;99.90;;;;;;5073995;28;20048;-57
2021/06/18 06:01:11;;;;;;;33.25;23.85;;;20.40;99.90;;;;;;5073928;28;20117;-57
2021/06/18 06:03:37;;;;;;;26.40;23.65;;;20.40;99.90;;;;;;5073668;28;20036;-56
2021/06/18 06:06:03;;;;;;;27.10;24.30;;;20.50;99.90;;;;;;5073677;28;20075;-57
2021/06/18 06:08:30;;;;;;;23.88;21.38;;;20.70;99.90;;;;;;5073448;28;20089;-56
2021/06/18 06:10:56;;;;;;;22.35;20.25;;;20.80;99.90;;;;;;5073303;28;20089;-57
2021/06/18 06:13:22;;;;;;;24.02;21.77;;;20.80;99.90;;;;;;5073375;28;20036;-56
2021/06/18 06:15:48;;;;;;;23.02;20.85;;;20.80;99.90;;;;;;5073363;28;20044;-56
2021/06/18 06:18:15;;;;;;;24.15;21.85;;;20.80;99.90;;;;;;5073444;28;20045;-57
2021/06/18 06:20:42;;;;;;;24.88;22.50;;;20.80;99.90;;;;;;5073246;28;20040;-57
2021/06/18 06:23:09;;;;;;;23.17;20.90;;;20.70;99.90;;;;;;5072931;28;20054;-57
2021/06/18 06:25:35;;;;;;;23.55;21.25;;;20.80;99.90;;;;;;5073171;28;20478;-57
2021/06/18 06:28:00;;;;;;;25.27;22.80;;;20.80;99.90;;;;;;5073338;28;20064;-57
2021/06/18 06:30:26;;;;;;;26.35;23.70;;;20.90;99.90;;;;;;5073037;28;20048;-57
2021/06/18 06:32:52;;;;;;;23.33;21.33;;;20.80;99.90;;;;;;5073003;28;20052;-57
2021/06/18 06:35:18;;;;;;;19.58;17.63;;;20.90;99.90;;;;;;5072942;28;20046;-57
2021/06/18 06:37:43;;;;;;;22.73;20.38;;;21.00;99.90;;;;;;5076541;28;20047;-57
2021/06/18 06:40:13;;;;;;;21.15;19.25;;;21.10;99.90;;;;;;5088915;28;20047;-57
2021/06/18 06:42:39;;;;;;;20.30;18.42;;;21.20;99.90;;;;;;5088055;28;20044;-56
2021/06/18 06:45:06;;;;;;;18.50;16.70;;;21.40;99.90;;;;;;5092846;28;20508;-57
2021/06/18 06:47:32;;;;;;;18.60;16.80;;;21.70;99.90;;;;;;5093078;28;20063;-57
2021/06/18 06:49:58;;;;;;;16.40;14.77;;;21.80;99.90;;;;;;5079667;28;20040;-57
2021/06/18 06:52:23;;;;;;;14.98;13.55;;;21.80;99.90;;;;;;5072565;28;20402;-57
2021/06/18 06:54:49;;;;;;;15.65;14.15;;;21.90;99.90;;;;;;5072680;28;20151;-56
2021/06/18 06:57:16;;;;;;;15.95;14.48;;;21.90;99.90;;;;;;5075504;28;20051;-57
2021/06/18 06:59:42;;;;;;;14.95;13.40;;;22.10;99.90;;;;;;5084854;28;20031;-57
2021/06/18 07:02:08;;;;;;;13.75;12.60;;;22.10;99.90;;;;;;5092311;28;20040;-57
2021/06/18 07:04:34;;;;;;;14.02;12.68;;;22.10;99.90;;;;;;5089963;28;20073;-57
2021/06/18 07:07:00;;;;;;;14.70;13.20;;;22.20;99.90;;;;;;5092817;28;20155;-57
2021/06/18 07:09:26;;;;;;;13.38;12.25;;;22.30;99.90;;;;;;5093004;28;20163;-58
2021/06/18 07:11:52;;;;;;;14.73;13.15;;;22.30;99.90;;;;;;5092749;28;20068;-57
2021/06/18 07:14:18;;;;;;;13.80;11.98;;;22.10;99.90;;;;;;5092423;28;20035;-57
2021/06/18 07:16:44;;;;;;;15.15;13.75;;;22.10;99.90;;;;;;5078349;28;20120;-56
2021/06/18 07:19:09;;;;;;;15.18;13.80;;;22.10;99.90;;;;;;5072068;28;20123;-61
2021/06/18 07:21:35;;;;;;;13.30;11.57;;;22.00;99.90;;;;;;5072040;28;20032;-61
2021/06/18 07:24:02;;;;;;;14.82;13.35;;;22.10;99.90;;;;;;5072464;28;20170;-61
2021/06/18 07:26:28;;;;;;;13.65;12.45;;;22.20;99.90;;;;;;5091931;28;20032;-60
2021/06/18 07:28:54;;;;;;;13.40;12.00;;;22.30;99.90;;;;;;5092364;28;20375;-61
2021/06/18 07:31:20;;;;;;;12.65;11.55;;;22.30;99.90;;;;;;5092564;28;20378;-61
2021/06/18 07:33:46;;;;;;;12.30;11.05;;;22.20;99.90;;;;;;5092508;28;20055;-57
2021/06/18 07:36:12;;;;;;;12.57;11.30;;;22.30;99.90;;;;;;5092236;28;20032;-57
2021/06/18 07:38:38;;;;;;;10.55;9.60;;;22.40;99.90;;;;;;5092212;28;20036;-57
2021/06/18 07:41:04;;;;;;;10.10;9.20;;;22.40;99.90;;;;;;5072140;28;20043;-57
2021/06/18 07:43:30;;;;;;;11.88;10.60;;;22.50;99.90;;;;;;5072069;28;20065;-58
2021/06/18 07:45:55;;;;;;;11.88;10.88;;;22.50;99.90;;;;;;5072085;28;20044;-56
2021/06/18 07:48:22;;;;;;;11.05;10.05;;;22.60;99.90;;;;;;5071469;28;20041;-57
2021/06/18 07:50:47;;;;;;;9.65;8.82;;;22.60;99.90;;;;;;5092108;28;20036;-57
2021/06/18 07:53:14;;;;;;;9.65;8.80;;;22.60;99.90;;;;;;5091964;28;20052;-57
2021/06/18 07:55:41;;;;;;;9.38;8.57;;;22.70;99.90;;;;;;5092555;28;20055;-56
2021/06/18 07:58:08;;;;;;;9.32;8.13;;;22.80;99.90;;;;;;5091984;28;20116;-58
2021/06/18 08:00:34;;;;;;;7.28;6.57;;;23.00;99.90;;;;;;5091432;28;20066;-57
2021/06/18 08:03:00;;;;;;;7.22;6.53;;;23.70;99.90;;;;;;5080362;28;20036;-57
2021/06/18 08:05:26;;;;;;;7.38;6.05;;;24.20;99.90;;;;;;5093290;28;20058;-58
2021/06/18 08:07:51;;;;;;;9.15;7.10;;;24.30;99.90;;;;;;5085888;28;20036;-58
2021/06/18 08:10:17;;;;;;;8.10;7.40;;;24.20;99.90;;;;;;5092954;28;20474;-57
2021/06/18 08:12:45;;;;;;;8.32;6.65;;;24.10;99.90;;;;;;5093171;28;20044;-57
2021/06/18 08:15:11;;;;;;;10.75;7.32;;;24.10;99.90;;;;;;5093520;28;20044;-58
2021/06/18 08:17:37;;;;;;;12.18;7.78;;;23.90;99.90;;;;;;5091467;28;20482;-58
2021/06/18 08:20:05;;;;;;;9.10;8.20;;;23.50;99.90;;;;;;5093628;28;20065;-57
2021/06/18 08:22:31;;;;;;;9.60;8.70;;;23.50;99.90;;;;;;5095263;28;20130;-58
2021/06/18 08:24:57;;;;;;;9.45;8.48;;;23.30;99.90;;;;;;5095754;28;20081;-57
2021/06/18 08:27:24;;;;;;;9.13;8.23;;;23.20;99.90;;;;;;5092946;28;20040;-57
2021/06/18 08:29:52;;;;;;;10.13;8.85;;;23.20;99.90;;;;;;5092329;28;20051;-57
2021/06/18 08:32:18;;;;;;;9.77;8.77;;;23.00;99.90;;;;;;5090891;28;20043;-57
2021/06/18 08:34:44;;;;;;;9.27;7.80;;;23.10;99.90;;;;;;5095401;28;20034;-57
2021/06/18 08:37:10;;;;;;;8.52;7.72;;;23.30;99.90;;;;;;5095061;28;20127;-57
2021/06/18 08:39:36;;;;;;;9.43;8.50;;;23.30;99.90;;;;;;5090328;28;20379;-60
2021/06/18 08:42:02;;;;;;;9.48;8.57;;;23.90;99.90;;;;;;5093536;28;20083;-61
2021/06/18 08:44:28;;;;;;;11.13;9.57;;;24.00;99.90;;;;;;5085031;28;20036;-60
2021/06/18 08:46:54;;;;;;;10.15;9.25;;;24.10;99.90;;;;;;5087583;28;20469;-61
2021/06/18 08:49:23;;;;;;;10.63;9.60;;;24.10;99.90;;;;;;5095178;28;20040;-60
2021/06/18 08:51:49;;;;;;;13.05;10.77;;;23.90;99.90;;;;;;5088498;28;20075;-61
2021/06/18 08:54:15;;;;;;;14.23;9.73;;;23.90;99.90;;;;;;5075273;28;20072;-61
2021/06/18 08:56:41;;;;;;;15.20;11.93;;;24.20;99.90;;;;;;5074913;28;20052;-60
2021/06/18 08:59:07;;;;;;;11.23;10.07;;;23.90;99.90;;;;;;5074769;28;20397;-60
2021/06/18 09:01:33;;;;;;;9.60;8.70;;;23.90;99.90;;;;;;5074815;28;20076;-61
2021/06/18 09:04:06;;;;;;;11.05;9.95;;;24.70;99.90;;;;;;5081537;28;20068;-60
2021/06/18 09:06:45;;;;;;;10.02;9.13;;;25.40;99.90;;;;;;5082653;28;20536;-60
2021/06/18 09:09:25;;;;;;;10.47;8.73;;;25.90;99.90;;;;;;5078849;28;20471;-60
2021/06/18 09:11:56;;;;;;;12.75;9.32;;;25.90;99.90;;;;;;5085340;28;20158;-60
2021/06/18 09:14:23;;;;;;;16.00;9.73;;;25.60;99.90;;;;;;5093516;28;20052;-62
2021/06/18 09:17:27;;;;;;;9.00;8.18;;;24.90;99.90;;;;;;5087021;28;20404;-62
2021/06/18 09:19:54;;;;;;;15.55;9.52;;;25.00;99.90;;;;;;5094556;28;20479;-61
2021/06/18 09:22:38;;;;;;;13.43;7.93;;;24.70;99.90;;;;;;5094375;28;20229;-62
2021/06/18 09:25:10;;;;;;;9.63;8.68;;;24.50;99.90;;;;;;5094845;28;20044;-60
2021/06/18 09:27:44;;;;;;;9.73;8.75;;;24.40;99.90;;;;;;5094771;28;20063;-61
2021/06/18 09:30:22;;;;;;;9.20;7.32;;;24.30;99.90;;;;;;5094941;28;20123;-61
2021/06/18 09:33:22;;;;;;;13.75;8.73;;;24.70;99.90;;;;;;5094451;28;20044;-61
2021/06/18 09:36:03;;;;;;;8.55;7.28;;;24.60;99.90;;;;;;5089590;28;20477;-61
2021/06/18 09:38:46;;;;;;;9.25;7.63;;;24.50;99.90;;;;;;5077475;28;20044;-62
2021/06/18 09:41:46;;;;;;;8.55;7.43;;;24.70;99.90;;;;;;5074277;28;20047;-61
2021/06/18 09:44:20;;;;;;;9.73;7.97;;;25.20;99.90;;;;;;5074276;28;20040;-61
2021/06/18 09:46:54;;;;;;;7.22;6.03;;;25.50;99.90;;;;;;5076173;28;20037;-61
2021/06/18 09:49:29;;;;;;;7.78;6.97;;;26.10;99.90;;;;;;5074021;28;20478;-62
2021/06/18 09:52:04;;;;;;;7.32;6.22;;;26.20;99.90;;;;;;5073979;28;20094;-61
2021/06/18 09:54:32;;;;;;;6.63;6.03;;;26.30;99.90;;;;;;5073985;28;20041;-62
2021/06/18 09:57:15;;;;;;;8.05;7.25;;;26.30;99.90;;;;;;5073949;28;20126;-61
2021/06/18 09:59:46;;;;;;;8.05;7.03;;;26.10;99.90;;;;;;5072515;28;20048;-61
2021/06/18 10:02:12;;;;;;;8.35;6.80;;;26.30;99.90;;;;;;5073401;28;20044;-62
2021/06/18 10:04:39;;;;;;;21.75;8.90;;;26.50;99.90;;;;;;5073699;28;20060;-62
2021/06/18 10:07:04;;;;;;;8.43;6.93;;;26.30;99.90;;;;;;5073661;28;20049;-61
2021/06/18 10:09:30;;;;;;;8.68;7.55;;;26.30;99.90;;;;;;5073660;28;20403;-61
2021/06/18 10:11:56;;;;;;;8.00;6.15;;;26.30;99.90;;;;;;5073824;28;20055;-61
2021/06/18 10:14:22;;;;;;;7.00;6.30;;;26.30;99.90;;;;;;5073291;28;20371;-61
2021/06/18 10:16:48;;;;;;;7.20;6.50;;;26.40;99.90;;;;;;5073235;28;20033;-61
2021/06/18 10:19:17;;;;;;;6.82;6.18;;;26.90;99.90;;;;;;5073563;28;20036;-61
2021/06/18 10:22:12;;;;;;;7.55;6.85;;;27.20;99.90;;;;;;5072935;28;20037;-61
2021/06/18 10:24:47;;;;;;;6.95;5.80;;;27.40;99.90;;;;;;5073012;28;20095;-61
2021/06/18 10:27:18;;;;;;;6.13;5.53;;;27.40;99.90;;;;;;5072928;28;20398;-61
2021/06/18 10:29:45;;;;;;;6.88;6.20;;;27.30;99.90;;;;;;5072738;28;20040;-61
2021/06/18 10:32:31;;;;;;;7.60;6.68;;;27.20;99.90;;;;;;5073039;28;20051;-61
2021/06/18 10:34:58;;;;;;;6.65;6.05;;;27.30;99.90;;;;;;5072699;28;20474;-61
2021/06/18 10:37:27;;;;;;;7.20;6.28;;;27.30;99.90;;;;;;5072691;28;20044;-61
2021/06/18 10:39:58;;;;;;;5.88;5.38;;;27.30;99.90;;;;;;5072729;28;20044;-61
2021/06/18 10:42:24;;;;;;;8.93;8.02;;;27.10;99.90;;;;;;5072817;28;20047;-60
2021/06/18 10:44:53;;;;;;;6.15;5.65;;;26.90;99.90;;;;;;5072673;28;20045;-60
2021/06/18 10:47:29;;;;;;;7.93;7.13;;;27.00;99.90;;;;;;5072603;28;20063;-61
2021/06/18 10:49:58;;;;;;;7.55;6.85;;;26.90;99.90;;;;;;5072795;28;20052;-60
2021/06/18 10:52:33;;;;;;;8.38;7.55;;;27.00;99.90;;;;;;5072970;28;20049;-60
2021/06/18 10:54:59;;;;;;;6.55;5.93;;;27.00;99.90;;;;;;5072539;28;20044;-61
2021/06/18 10:57:26;;;;;;;12.57;7.35;;;27.10;99.90;;;;;;5072447;28;20052;-60
2021/06/18 11:00:18;;;;;;;6.85;6.10;;;26.80;99.90;;;;;;5072388;28;20540;-61
2021/06/18 11:02:44;;;;;;;6.10;5.50;;;26.80;99.90;;;;;;5072025;28;20044;-61
2021/06/18 11:05:24;;;;;;;9.43;7.15;;;26.90;99.90;;;;;;5072079;28;20502;-61
2021/06/18 11:07:50;;;;;;;8.45;5.95;;;26.80;99.90;;;;;;5072457;28;20037;-61
2021/06/18 11:10:29;;;;;;;7.35;6.68;;;27.00;99.90;;;;;;5072092;28;20497;-61
2021/06/18 11:13:01;;;;;;;6.50;5.75;;;26.70;99.90;;;;;;5072060;28;20049;-61
2021/06/18 11:15:29;;;;;;;6.80;5.00;;;26.60;99.90;;;;;;5072328;28;20048;-60
2021/06/18 11:18:17;;;;;;;6.68;6.07;;;26.70;99.90;;;;;;5072349;28;20055;-60
2021/06/18 11:20:43;;;;;;;6.32;5.63;;;26.60;99.90;;;;;;5072086;28;20040;-61
2021/06/18 11:23:29;;;;;;;8.43;5.95;;;27.10;99.90;;;;;;5071842;28;20049;-61
2021/06/18 11:26:00;;;;;;;8.70;6.32;;;27.40;99.90;;;;;;5072062;28;20097;-61
2021/06/18 11:28:32;;;;;;;6.40;5.80;;;27.80;99.90;;;;;;5072144;28;20044;-61
2021/06/18 11:30:59;;;;;;;6.03;5.28;;;27.30;99.90;;;;;;5072239;28;20036;-62
2021/06/18 11:33:45;;;;;;;4.88;4.47;;;27.40;99.90;;;;;;5072182;28;20044;-60
2021/06/18 11:36:17;;;;;;;4.40;4.00;;;27.30;99.90;;;;;;5072143;28;20044;-60
2021/06/18 11:38:48;;;;;;;8.68;5.47;;;27.70;99.90;;;;;;5072017;28;20048;-61
2021/06/18 11:41:18;;;;;;;6.78;4.20;;;28.10;99.90;;;;;;5071196;28;20048;-60
2021/06/18 11:43:44;;;;;;;7.20;4.95;;;28.50;99.90;;;;;;5071820;28;20044;-61
2021/06/18 11:46:11;;;;;;;8.93;4.57;;;28.40;99.90;;;;;;5071851;28;20037;-62
2021/06/18 11:48:37;;;;;;;5.78;4.53;;;28.00;99.90;;;;;;5071529;28;20040;-61
2021/06/18 11:51:04;;;;;;;9.10;5.00;;;27.90;99.90;;;;;;5071734;28;20055;-62
2021/06/18 11:53:38;;;;;;;4.70;4.18;;;27.90;99.90;;;;;;5071857;28;20045;-61
2021/06/18 11:56:04;;;;;;;4.20;3.55;;;27.80;99.90;;;;;;5071626;28;20032;-61
2021/06/18 11:58:37;;;;;;;8.77;4.00;;;28.20;99.90;;;;;;5071567;28;20090;-61
2021/06/18 12:01:16;;;;;;;4.93;4.50;;;28.30;99.90;;;;;;5071644;28;20044;-61
2021/06/18 12:03:44;;;;;;;6.05;4.50;;;28.00;99.90;;;;;;5071712;28;20123;-60
2021/06/18 12:06:38;;;;;;;8.63;5.00;;;28.60;99.90;;;;;;5071557;28;20478;-61
2021/06/18 12:09:09;;;;;;;7.80;5.18;;;28.80;99.90;;;;;;5071338;28;20132;-61
2021/06/18 12:11:41;;;;;;;5.28;4.78;;;28.80;99.90;;;;;;5071873;28;20076;-61
2021/06/18 12:14:09;;;;;;;6.60;4.22;;;29.00;99.90;;;;;;5071775;28;20039;-60
2021/06/18 12:16:36;;;;;;;;;;;29.60;99.90;;;;;;5071871;28;20041;-61
2021/06/18 12:19:27;;;;;;;7.13;4.78;;;29.80;99.90;;;;;;5071627;28;19974;-62
2021/06/18 12:22:11;;;;;;;4.93;3.92;;;29.60;99.80;;;;;;5071391;28;20058;-61
2021/06/18 12:24:42;;;;;;;6.05;4.35;;;29.90;99.30;;;;;;5071207;28;20052;-61
2021/06/18 12:27:20;;;;;;;7.30;6.00;;;29.90;99.50;;;;;;5071637;28;20048;-61
2021/06/18 12:29:55;;;;;;;7.03;5.47;;;29.90;99.00;;;;;;5071396;28;20032;-61
2021/06/18 12:32:26;;;;;;;7.55;6.18;;;29.70;99.10;;;;;;5071484;28;20048;-61
2021/06/18 12:34:57;;;;;;;7.93;5.82;;;29.60;98.70;;;;;;5071344;28;20541;-62
2021/06/18 12:37:27;;;;;;;7.15;5.13;;;29.10;99.60;;;;;;5071596;28;20561;-62
2021/06/18 12:39:55;;;;;;;;;;;29.10;99.70;;;;;;5071576;28;20044;-61
2021/06/18 12:42:22;;;;;;;5.40;4.90;;;29.40;99.90;;;;;;5071695;28;20038;-61
2021/06/18 12:45:12;;;;;;;7.80;6.10;;;29.70;99.50;;;;;;5071309;28;20048;-60